Time;durP1;ratioP1;P1;durP2;ratioP2;P2;SDS_P1;SDS_P2;PMS_P1;PMS_P2;Temp;Humidity;BMP_temperature;BMP_pressure;BME280_temperature;BME280_humidity;BME280_pressure;Samples;Min_cycle;Max_cycle;Signal;HPM_P1;HPM_P2
2024/01/02 00:00:08;;;;;;;39.70;23.90;;;;;;;-5.15;100.00;141027.28;107111;1270;25414;-60
2024/01/02 00:02:59;;;;;;;36.90;21.40;;;;;;;-5.13;100.00;141032.23;107244;1263;25364;-59
2024/01/02 00:05:45;;;;;;;39.60;23.30;;;;;;;-5.11;100.00;141037.94;107165;1258;25341;-58
2024/01/02 00:08:31;;;;;;;38.00;23.50;;;;;;;-5.12;100.00;141035.20;107072;1263;25418;-59
2024/01/02 00:11:17;;;;;;;36.90;21.00;;;;;;;-5.14;100.00;141028.28;107060;1260;25907;-60
2024/01/02 00:14:02;;;;;;;34.50;20.90;;;;;;;-5.18;100.00;141020.88;107083;1263;25365;-62
2024/01/02 00:16:48;;;;;;;38.00;22.30;;;;;;;-5.21;100.00;141011.47;107036;1269;25412;-62
2024/01/02 00:19:34;;;;;;;34.10;19.50;;;;;;;-5.27;100.00;140998.34;107045;1256;25372;-63
2024/01/02 00:22:20;;;;;;;31.70;18.50;;;;;;;-5.33;100.00;140984.23;107019;1264;25369;-62
2024/01/02 00:25:06;;;;;;;27.10;17.70;;;;;;;-5.35;100.00;140978.30;107011;1264;25347;-61
2024/01/02 00:27:52;;;;;;;29.40;17.80;;;;;;;-5.33;100.00;140982.00;107039;1260;25340;-65
2024/01/02 00:30:39;;;;;;;28.00;16.40;;;;;;;-5.29;100.00;140993.39;106992;1269;25375;-62
2024/01/02 00:33:25;;;;;;;27.90;16.30;;;;;;;-5.22;100.00;141009.97;107001;1263;25369;-61
2024/01/02 00:36:12;;;;;;;22.80;13.90;;;;;;;-5.17;100.00;141023.58;107051;1260;25408;-62
2024/01/02 00:38:57;;;;;;;24.70;14.00;;;;;;;-5.11;100.00;141036.20;107024;1263;25427;-65
2024/01/02 00:41:43;;;;;;;25.10;15.70;;;;;;;-5.04;100.00;141055.25;107024;1266;26484;-62
2024/01/02 00:44:29;;;;;;;22.20;12.20;;;;;;;-4.98;100.00;141066.64;107060;1263;25359;-62
2024/01/02 00:47:15;;;;;;;15.80;9.20;;;;;;;-4.98;100.00;141066.39;107024;1263;25376;-63
2024/01/02 00:50:00;;;;;;;16.60;9.70;;;;;;;-4.99;100.00;141066.14;107025;1266;25389;-61
2024/01/02 00:52:46;;;;;;;14.20;8.30;;;;;;;-4.97;100.00;141070.34;107017;1263;25365;-61
2024/01/02 00:55:32;;;;;;;10.40;6.20;;;;;;;-4.95;100.00;141074.05;107041;1263;26512;-62
2024/01/02 00:58:18;;;;;;;12.00;6.20;;;;;;;-4.95;100.00;141073.81;107124;1263;25990;-63
2024/01/02 01:01:03;;;;;;;10.10;5.60;;;;;;;-4.97;100.00;141071.08;107036;1261;25481;-64
2024/01/02 01:03:49;;;;;;;11.90;5.50;;;;;;;-4.96;100.00;141072.06;107014;1264;25337;-61
2024/01/02 01:06:34;;;;;;;7.20;3.90;;;;;;;-4.97;100.00;141069.84;106999;1263;25368;-62
2024/01/02 01:09:20;;;;;;;5.50;3.20;;;;;;;-4.96;100.00;141072.56;107228;1264;25417;-63
2024/01/02 01:12:07;;;;;;;6.60;3.50;;;;;;;-4.95;100.00;141075.78;107109;1264;22526;-65
2024/01/02 01:14:52;;;;;;;5.30;2.80;;;;;;;-4.94;100.00;141076.28;107084;1263;25472;-63
2024/01/02 01:17:39;;;;;;;5.70;2.70;;;;;;;-4.97;100.00;141069.34;107063;1260;25375;-61
2024/01/02 01:20:25;;;;;;;6.90;3.20;;;;;;;-4.98;100.00;141066.88;107042;1263;25365;-63
2024/01/02 01:23:11;;;;;;;5.40;2.50;;;;;;;-5.02;100.00;141058.47;107092;1260;25512;-63
2024/01/02 01:25:57;;;;;;;5.60;2.90;;;;;;;-5.05;100.00;141051.78;107069;1263;25418;-62
2024/01/02 01:28:43;;;;;;;5.50;2.90;;;;;;;-5.06;100.00;141048.33;107032;1263;25382;-58
2024/01/02 01:31:29;;;;;;;4.40;2.40;;;;;;;-5.05;100.00;141051.80;107044;1263;25904;-63
2024/01/02 01:34:15;;;;;;;5.80;2.70;;;;;;;-5.04;100.00;141054.78;107058;1263;25369;-62
2024/01/02 01:37:01;;;;;;;4.30;2.30;;;;;;;-5.04;100.00;141054.02;107050;1263;25396;-62
2024/01/02 01:39:46;;;;;;;4.40;2.30;;;;;;;-5.03;100.00;141057.97;107071;1263;25409;-63
2024/01/02 01:42:32;;;;;;;5.90;2.50;;;;;;;-5.03;100.00;141057.23;107395;1264;25919;-59
2024/01/02 01:45:18;;;;;;;4.40;2.10;;;;;;;-5.04;100.00;141054.53;107110;1263;25341;-62
2024/01/02 01:48:07;;;;;;;5.90;2.40;;;;;;;-5.03;100.00;141056.50;107080;1260;25341;-63
2024/01/02 01:50:53;;;;;;;4.40;2.50;;;;;;;-5.04;100.00;141054.78;107091;1260;25338;-62
2024/01/02 01:53:39;;;;;;;4.20;2.10;;;;;;;-5.05;100.00;141051.53;107103;1263;25331;-60
2024/01/02 01:56:25;;;;;;;3.90;2.20;;;;;;;-5.07;100.00;141046.59;107101;1263;23773;-61
2024/01/02 01:59:13;;;;;;;3.50;1.50;;;;;;;-5.07;100.00;141046.09;106993;1266;25493;-62
2024/01/02 02:01:59;;;;;;;4.30;1.60;;;;;;;-5.08;100.00;141045.59;106940;1267;25341;-63
2024/01/02 02:04:49;;;;;;;2.80;1.50;;;;;;;-5.07;100.00;141045.84;107018;1265;25386;-62
2024/01/02 02:07:35;;;;;;;3.20;1.70;;;;;;;-5.11;100.00;141036.94;107042;1269;25369;-62
2024/01/02 02:10:21;;;;;;;4.00;1.80;;;;;;;-5.11;100.00;141036.94;107047;1270;25341;-57
2024/01/02 02:13:07;;;;;;;5.60;1.70;;;;;;;-5.13;100.00;141032.25;107193;1264;25933;-62
2024/01/02 02:15:53;;;;;;;3.10;1.50;;;;;;;-5.14;100.00;141030.50;107201;1263;25401;-59
2024/01/02 02:18:38;;;;;;;4.20;1.90;;;;;;;-5.17;100.00;141021.59;107001;1266;25347;-62
2024/01/02 02:21:25;;;;;;;4.00;1.70;;;;;;;-5.17;100.00;141021.11;106988;1263;25455;-61
2024/01/02 02:24:10;;;;;;;5.00;1.60;;;;;;;-5.20;100.00;141015.66;106961;1266;25401;-63
2024/01/02 02:26:58;;;;;;;3.40;1.60;;;;;;;-5.21;100.00;141010.47;106859;1266;25481;-63
2024/01/02 02:29:43;;;;;;;2.90;1.40;;;;;;;-5.24;100.00;141006.53;106991;1266;25338;-62
2024/01/02 02:32:29;;;;;;;3.40;1.40;;;;;;;-5.24;100.00;141005.03;107028;1264;25385;-62
2024/01/02 02:35:15;;;;;;;3.40;1.60;;;;;;;-5.22;100.00;141009.22;106997;1263;25417;-61
2024/01/02 02:38:01;;;;;;;7.40;2.60;;;;;;;-5.20;100.00;141014.17;107034;1266;25379;-64
2024/01/02 02:40:47;;;;;;;4.70;1.90;;;;;;;-5.17;100.00;141021.34;107090;1263;25393;-60
2024/01/02 02:43:34;;;;;;;2.90;1.40;;;;;;;-5.19;100.00;141016.16;107096;1260;25411;-60
2024/01/02 02:46:19;;;;;;;2.60;1.20;;;;;;;-5.22;100.00;141010.47;107048;1260;25413;-61
2024/01/02 02:49:05;;;;;;;3.60;1.40;;;;;;;-5.24;100.00;141005.28;107067;1263;25490;-59
2024/01/02 02:51:51;;;;;;;3.40;1.40;;;;;;;-5.24;100.00;141006.75;107064;1263;25482;-61
2024/01/02 02:54:37;;;;;;;2.90;1.30;;;;;;;-5.21;100.00;141011.20;107013;1263;23869;-61
2024/01/02 02:57:23;;;;;;;3.50;1.60;;;;;;;-5.23;100.00;141008.02;107046;1263;25399;-63
2024/01/02 03:00:10;;;;;;;2.70;1.10;;;;;;;-5.23;100.00;141006.52;107076;1263;25416;-61
2024/01/02 03:02:56;;;;;;;2.40;1.20;;;;;;;-5.30;100.00;140990.42;107067;1266;25403;-61
2024/01/02 03:05:42;;;;;;;2.90;1.20;;;;;;;-5.35;100.00;140978.78;107090;1263;25338;-58
2024/01/02 03:08:28;;;;;;;2.80;1.20;;;;;;;-5.37;100.00;140972.38;107098;1264;25379;-59
2024/01/02 03:11:14;;;;;;;3.90;1.20;;;;;;;-5.37;100.00;140973.34;107089;1263;25443;-63
2024/01/02 03:13:59;;;;;;;3.80;1.20;;;;;;;-5.39;100.00;140969.66;107084;1260;25350;-61
2024/01/02 03:16:46;;;;;;;3.40;1.60;;;;;;;-5.38;100.00;140970.86;107042;1264;25356;-60
2024/01/02 03:19:31;;;;;;;5.50;2.00;;;;;;;-5.36;100.00;140975.83;107231;1251;25328;-60
2024/01/02 03:22:17;;;;;;;3.30;1.30;;;;;;;-5.39;100.00;140968.66;107306;1266;25511;-59
2024/01/02 03:25:04;;;;;;;4.10;1.90;;;;;;;-5.43;100.00;140959.02;107101;1263;25449;-62
2024/01/02 03:27:50;;;;;;;2.70;1.30;;;;;;;-5.47;100.00;140951.34;107015;1264;25366;-62
2024/01/02 03:30:39;;;;;;;2.50;1.00;;;;;;;-5.46;100.00;140953.81;107008;1268;25411;-58
2024/01/02 03:33:24;;;;;;;3.20;1.30;;;;;;;-5.43;100.00;140959.77;107028;1264;25461;-59
2024/01/02 03:36:20;;;;;;;2.90;1.30;;;;;;;-5.42;100.00;140960.50;107097;1263;25340;-56
2024/01/02 03:39:06;;;;;;;3.10;1.60;;;;;;;-5.44;100.00;140957.53;107043;1266;25415;-58
2024/01/02 03:41:51;;;;;;;2.80;1.20;;;;;;;-5.46;100.00;140954.05;107042;1266;25536;-58
2024/01/02 03:44:37;;;;;;;3.80;1.70;;;;;;;-5.47;100.00;140950.13;107023;1260;25417;-63
2024/01/02 03:47:22;;;;;;;3.30;1.50;;;;;;;-5.48;100.00;140947.39;107024;1263;25445;-63
2024/01/02 03:50:08;;;;;;;4.00;1.70;;;;;;;-5.48;100.00;140947.39;107037;1264;25484;-62
2024/01/02 03:52:54;;;;;;;3.70;1.60;;;;;;;-5.49;100.00;140946.66;107030;1266;25490;-59
2024/01/02 03:55:40;;;;;;;3.90;1.70;;;;;;;-5.48;100.00;140947.88;107053;1264;25369;-58
2024/01/02 03:58:27;;;;;;;2.80;1.30;;;;;;;-5.50;100.00;140944.41;107100;1266;25344;-60
2024/01/02 04:01:12;;;;;;;3.20;1.30;;;;;;;-5.57;100.00;140925.64;107066;1263;25369;-61
2024/01/02 04:03:58;;;;;;;2.40;1.10;;;;;;;-5.62;100.00;140914.02;107016;1264;25396;-62
2024/01/02 04:06:43;;;;;;;2.60;1.30;;;;;;;-5.68;100.00;140898.91;107018;1266;25490;-63
2024/01/02 04:09:28;;;;;;;2.40;1.00;;;;;;;-5.72;100.00;140888.55;107139;1261;25341;-61
2024/01/02 04:12:14;;;;;;;2.10;0.90;;;;;;;-5.79;100.00;140870.97;107062;1263;25378;-59
2024/01/02 04:14:59;;;;;;;2.00;0.90;;;;;;;-5.85;100.00;140856.63;107081;1263;25490;-62
2024/01/02 04:17:45;;;;;;;2.20;1.00;;;;;;;-5.86;100.00;140855.66;107054;1264;25405;-62
2024/01/02 04:20:31;;;;;;;1.90;0.70;;;;;;;-5.90;100.00;140847.72;107066;1263;25356;-61
2024/01/02 04:23:16;;;;;;;2.30;1.00;;;;;;;-5.92;100.00;140842.30;107028;1272;25360;-64
2024/01/02 04:26:02;;;;;;;1.90;0.80;;;;;;;-5.93;100.00;140838.84;107047;1263;25341;-63
2024/01/02 04:28:48;;;;;;;4.10;1.90;;;;;;;-5.93;100.00;140840.34;107004;1260;25356;-60
2024/01/02 04:31:33;;;;;;;2.60;1.10;;;;;;;-5.97;100.00;140830.47;107087;1263;25417;-63
2024/01/02 04:34:19;;;;;;;2.10;0.90;;;;;;;-6.01;100.00;140818.88;107012;1263;25458;-62
2024/01/02 04:37:04;;;;;;;3.40;0.90;;;;;;;-6.07;100.00;140804.78;106983;1261;25497;-62
2024/01/02 04:39:50;;;;;;;2.60;1.20;;;;;;;-6.08;100.00;140801.31;107013;1263;25490;-61
2024/01/02 04:42:37;;;;;;;1.40;0.80;;;;;;;-6.10;100.00;140796.88;107037;1263;25369;-63
2024/01/02 04:45:24;;;;;;;1.50;0.90;;;;;;;-6.10;100.00;140796.88;107023;1263;25408;-65
2024/01/02 04:48:10;;;;;;;0.90;0.80;;;;;;;-6.16;100.00;140783.52;107023;1263;24448;-62
2024/01/02 04:50:56;;;;;;;1.30;0.70;;;;;;;-6.23;100.00;140764.97;107020;1263;25382;-62
2024/01/02 04:53:42;;;;;;;2.30;0.90;;;;;;;-6.30;100.00;140749.66;107074;1263;25366;-63
2024/01/02 04:56:27;;;;;;;2.30;1.00;;;;;;;-6.34;100.00;140739.77;107041;1263;25341;-60
2024/01/02 04:59:13;;;;;;;2.00;1.10;;;;;;;-6.39;100.00;140729.13;107087;1263;25478;-61
2024/01/02 05:01:59;;;;;;;1.90;1.00;;;;;;;-6.38;100.00;140731.61;107119;1263;25525;-59
2024/01/02 05:04:44;;;;;;;2.50;0.80;;;;;;;-6.39;100.00;140727.41;107064;1263;25416;-61
2024/01/02 05:07:30;;;;;;;1.10;0.80;;;;;;;-6.40;100.00;140724.70;107096;1263;25359;-62
2024/01/02 05:10:16;;;;;;;1.60;0.90;;;;;;;-6.39;100.00;140728.16;107043;1263;25360;-62
2024/01/02 05:13:02;;;;;;;1.70;0.90;;;;;;;-6.39;100.00;140728.41;107051;1263;25324;-62
2024/01/02 05:15:48;;;;;;;1.70;1.00;;;;;;;-6.42;100.00;140720.50;107038;1269;25362;-62
2024/01/02 05:18:33;;;;;;;1.50;0.80;;;;;;;-6.42;100.00;140719.75;107045;1263;25391;-58
2024/01/02 05:21:19;;;;;;;1.80;1.00;;;;;;;-6.44;100.00;140714.80;106980;1263;25551;-61
2024/01/02 05:24:05;;;;;;;3.70;0.90;;;;;;;-6.46;100.00;140711.38;107062;1263;25418;-61
2024/01/02 05:26:51;;;;;;;2.50;1.00;;;;;;;-6.44;100.00;140716.55;107025;1263;25482;-59
2024/01/02 05:29:37;;;;;;;2.80;1.20;;;;;;;-6.45;100.00;140713.58;107042;1263;25365;-61
2024/01/02 05:32:23;;;;;;;1.50;0.90;;;;;;;-6.49;100.00;140702.20;106896;1263;181941;-63
2024/01/02 05:35:08;;;;;;;2.40;0.90;;;;;;;-6.50;100.00;140701.22;107019;1270;25481;-62
2024/01/02 05:37:54;;;;;;;3.50;1.00;;;;;;;-6.52;100.00;140695.28;107453;1263;25409;-61
2024/01/02 05:40:40;;;;;;;3.00;0.70;;;;;;;-6.63;100.00;140668.61;107290;1264;25984;-60
2024/01/02 05:43:25;;;;;;;1.80;0.90;;;;;;;-6.70;100.00;140651.06;107083;1263;25548;-63
2024/01/02 05:46:11;;;;;;;1.60;0.80;;;;;;;-6.74;100.00;140643.17;106996;1263;25331;-60
2024/01/02 05:48:57;;;;;;;2.50;1.10;;;;;;;-6.70;100.00;140651.80;107063;1263;25573;-60
2024/01/02 05:51:42;;;;;;;2.20;1.10;;;;;;;-6.68;100.00;140656.97;106995;1263;25418;-60
2024/01/02 05:54:28;;;;;;;2.70;1.00;;;;;;;-6.71;100.00;140650.08;107037;1263;25369;-60
2024/01/02 05:57:13;;;;;;;1.90;0.90;;;;;;;-6.73;100.00;140643.66;106955;1263;25495;-59
2024/01/02 06:00:00;;;;;;;2.90;0.90;;;;;;;-6.74;100.00;140643.16;107012;1272;25335;-63
2024/01/02 06:02:46;;;;;;;1.20;0.80;;;;;;;-6.77;100.00;140636.73;106983;1272;25408;-61
2024/01/02 06:05:32;;;;;;;1.80;0.80;;;;;;;-6.87;100.00;140612.55;106974;1263;22648;-63
2024/01/02 06:08:17;;;;;;;2.30;0.90;;;;;;;-6.92;100.00;140598.97;107043;1254;25343;-57
2024/01/02 06:11:03;;;;;;;1.40;0.80;;;;;;;-6.94;100.00;140595.50;106949;1263;25341;-64
2024/01/02 06:13:49;;;;;;;2.00;0.90;;;;;;;-6.89;100.00;140606.34;107280;1266;25477;-60
2024/01/02 06:16:34;;;;;;;2.20;1.10;;;;;;;-6.83;100.00;140622.66;107044;1263;25415;-62
2024/01/02 06:19:20;;;;;;;1.60;0.80;;;;;;;-6.83;100.00;140622.41;107140;1263;25417;-61
2024/01/02 06:22:06;;;;;;;1.10;0.70;;;;;;;-6.82;100.00;140624.16;107111;1264;25356;-60
2024/01/02 06:24:52;;;;;;;0.90;0.50;;;;;;;-6.87;100.00;140613.03;107108;1267;25347;-63
2024/01/02 06:27:38;;;;;;;1.30;0.70;;;;;;;-6.88;100.00;140609.58;107007;1263;25510;-62
2024/01/02 06:30:23;;;;;;;2.00;0.80;;;;;;;-6.90;100.00;140603.91;107075;1272;25342;-58
2024/01/02 06:33:10;;;;;;;2.20;1.00;;;;;;;-6.94;100.00;140595.00;107226;1263;22642;-59
2024/01/02 06:35:55;;;;;;;1.30;0.80;;;;;;;-6.98;100.00;140584.63;107038;1266;25349;-60
2024/01/02 06:38:41;;;;;;;1.70;1.00;;;;;;;-7.01;100.00;140577.72;107001;1263;25402;-59
2024/01/02 06:41:27;;;;;;;2.00;0.90;;;;;;;-7.05;100.00;140569.06;107041;1263;25341;-60
2024/01/02 06:44:13;;;;;;;1.70;0.80;;;;;;;-7.05;100.00;140567.83;107000;1263;25350;-61
2024/01/02 06:46:59;;;;;;;1.70;0.80;;;;;;;-7.04;100.00;140570.80;106979;1263;25490;-62
2024/01/02 06:49:47;;;;;;;2.30;1.00;;;;;;;-7.07;100.00;140563.38;107021;1263;25397;-60
2024/01/02 06:52:33;;;;;;;3.30;1.60;;;;;;;-7.13;100.00;140548.33;106991;1271;25406;-63
2024/01/02 06:55:18;;;;;;;2.30;1.00;;;;;;;-7.18;100.00;140537.20;107010;1263;25490;-59
2024/01/02 06:58:05;;;;;;;1.80;0.80;;;;;;;-7.17;100.00;140538.94;107101;1266;25344;-60
2024/01/02 07:00:51;;;;;;;4.40;0.90;;;;;;;-7.14;100.00;140544.63;107145;1268;25369;-63
2024/01/02 07:03:36;;;;;;;2.60;1.10;;;;;;;-7.16;100.00;140540.41;107076;1263;25395;-63
2024/01/02 07:06:22;;;;;;;3.10;1.60;;;;;;;-7.19;100.00;140534.25;107016;1263;25420;-61
2024/01/02 07:09:08;;;;;;;3.60;1.70;;;;;;;-7.19;100.00;140533.75;106992;1263;25368;-61
2024/01/02 07:11:54;;;;;;;2.70;1.40;;;;;;;-7.28;100.00;140513.73;106947;1270;25350;-58
2024/01/02 07:14:41;;;;;;;2.80;1.10;;;;;;;-7.37;100.00;140491.03;107010;1263;25369;-62
2024/01/02 07:17:26;;;;;;;1.80;1.10;;;;;;;-7.46;100.00;140469.05;106998;1269;26490;-62
2024/01/02 07:20:13;;;;;;;2.60;1.30;;;;;;;-7.58;100.00;140441.17;107051;1263;25320;-59
2024/01/02 07:22:59;;;;;;;3.30;1.60;;;;;;;-7.71;100.00;140409.84;107068;1263;25331;-61
2024/01/02 07:25:44;;;;;;;3.20;1.60;;;;;;;-7.83;100.00;140381.20;107014;1263;25356;-61
2024/01/02 07:28:30;;;;;;;1.30;0.80;;;;;;;-7.92;100.00;140357.25;106999;1263;25341;-61
2024/01/02 07:31:16;;;;;;;1.60;1.10;;;;;;;-7.99;100.00;140341.48;107073;1270;25545;-63
2024/01/02 07:34:02;;;;;;;3.60;1.50;;;;;;;-8.04;100.00;140327.91;107017;1263;25408;-63
2024/01/02 07:36:47;;;;;;;2.40;1.30;;;;;;;-8.11;100.00;140314.34;107018;1273;25322;-63
2024/01/02 07:39:34;;;;;;;2.20;1.10;;;;;;;-8.20;100.00;140292.14;107024;1265;25325;-64
2024/01/02 07:42:21;;;;;;;4.70;2.40;;;;;;;-8.26;100.00;140277.08;107061;1264;25473;-63
2024/01/02 07:45:08;;;;;;;5.80;1.90;;;;;;;-8.29;100.00;140268.45;107054;1257;25359;-64
2024/01/02 07:47:54;;;;;;;8.60;3.40;;;;;;;-8.37;100.00;140248.97;107032;1263;25439;-62
2024/01/02 07:50:40;;;;;;;10.30;3.90;;;;;;;-8.39;100.00;140244.83;107030;1263;25424;-60
2024/01/02 07:53:25;;;;;;;11.30;3.90;;;;;;;-8.43;100.00;140235.70;106986;1265;24366;-64
2024/01/02 07:56:11;;;;;;;7.90;3.50;;;;;;;-8.49;100.00;140219.91;106997;1263;25346;-62
2024/01/02 07:58:56;;;;;;;3.80;1.90;;;;;;;-8.54;100.00;140210.06;106967;1263;25389;-62
2024/01/02 08:01:42;;;;;;;1.90;1.20;;;;;;;-8.58;100.00;140201.17;107563;1253;22618;-62
2024/01/02 08:04:29;;;;;;;3.00;1.60;;;;;;;-8.61;100.00;140193.28;107072;1273;25490;-63
2024/01/02 08:07:16;;;;;;;3.40;1.90;;;;;;;-8.62;100.00;140189.09;107490;1263;24400;-60
2024/01/02 08:10:01;;;;;;;4.00;1.50;;;;;;;-8.65;100.00;140183.17;107078;1265;25443;-63
2024/01/02 08:12:47;;;;;;;3.60;1.80;;;;;;;-8.68;100.00;140174.55;106891;1263;25401;-62
2024/01/02 08:15:32;;;;;;;5.90;2.40;;;;;;;-8.68;100.00;140174.80;107229;1272;25369;-60
2024/01/02 08:18:27;;;;;;;3.20;1.60;;;;;;;-8.76;100.00;140156.05;107045;1263;25526;-63
2024/01/02 08:21:13;;;;;;;3.40;1.90;;;;;;;-8.89;100.00;140124.48;107126;1271;25352;-60
2024/01/02 08:23:59;;;;;;;4.40;2.00;;;;;;;-9.02;100.00;140094.92;106935;1270;25328;-59
2024/01/02 08:26:45;;;;;;;4.50;2.00;;;;;;;-9.07;100.00;140080.88;106982;1263;25420;-62
2024/01/02 08:29:30;;;;;;;4.50;2.40;;;;;;;-9.11;100.00;140072.22;106934;1263;24568;-61
2024/01/02 08:32:16;;;;;;;3.90;2.00;;;;;;;-9.16;100.00;140059.17;106982;1266;25347;-63
2024/01/02 08:35:02;;;;;;;3.60;2.00;;;;;;;-9.25;100.00;140037.25;107038;1263;25417;-62
2024/01/02 08:37:49;;;;;;;6.50;3.50;;;;;;;-9.31;100.00;140021.97;107093;1263;25405;-61
2024/01/02 08:40:35;;;;;;;5.60;2.50;;;;;;;-9.36;100.00;140011.38;107029;1263;24343;-62
2024/01/02 08:43:21;;;;;;;5.40;3.50;;;;;;;-9.29;100.00;140027.16;106945;1263;25561;-62
2024/01/02 08:46:06;;;;;;;4.10;2.40;;;;;;;-9.28;100.00;140029.84;106914;1264;25356;-60
2024/01/02 08:48:52;;;;;;;4.40;2.40;;;;;;;-9.29;100.00;140027.16;106981;1264;25436;-62
2024/01/02 08:51:39;;;;;;;5.90;3.10;;;;;;;-9.27;100.00;140033.05;106976;1268;25401;-62
2024/01/02 08:54:25;;;;;;;7.20;2.80;;;;;;;-9.35;100.00;140013.09;106940;1263;25481;-61
2024/01/02 08:57:11;;;;;;;4.30;2.20;;;;;;;-9.43;100.00;139996.34;106974;1272;23854;-60
2024/01/02 08:59:57;;;;;;;4.90;2.90;;;;;;;-9.51;100.00;139974.42;106936;1270;25331;-62
2024/01/02 09:02:43;;;;;;;5.00;2.80;;;;;;;-9.67;100.00;139937.20;106968;1254;25415;-62
2024/01/02 09:05:29;;;;;;;5.80;2.90;;;;;;;-9.79;100.00;139906.91;107062;1263;25360;-61
2024/01/02 09:08:15;;;;;;;4.90;2.60;;;;;;;-9.86;100.00;139892.66;106917;1263;25490;-62
2024/01/02 09:11:01;;;;;;;5.70;2.40;;;;;;;-9.92;100.00;139876.88;107031;1272;25350;-63
2024/01/02 09:13:47;;;;;;;4.60;2.40;;;;;;;-9.97;100.00;139865.30;107206;1264;25350;-62
2024/01/02 09:16:35;;;;;;;5.20;2.80;;;;;;;-9.99;100.00;139859.91;107093;1267;22522;-58
2024/01/02 09:19:21;;;;;;;5.80;3.40;;;;;;;-9.97;100.00;139864.81;107114;1263;24230;-62
2024/01/02 09:22:06;;;;;;;5.50;3.00;;;;;;;-10.00;100.00;139857.42;107078;1265;26950;-64
2024/01/02 09:24:52;;;;;;;5.90;2.80;;;;;;;-10.11;100.00;139832.08;107125;1263;22523;-62
2024/01/02 09:27:40;;;;;;;5.40;3.30;;;;;;;-10.15;100.00;139820.73;107165;1270;25583;-64
2024/01/02 09:30:26;;;;;;;6.10;3.90;;;;;;;-10.17;100.00;139815.83;107310;1266;25545;-61
2024/01/02 09:33:12;;;;;;;6.10;3.20;;;;;;;-10.23;100.00;139801.05;107461;1263;25539;-62
2024/01/02 09:35:58;;;;;;;6.30;2.80;;;;;;;-10.32;100.00;139782.14;107515;1272;26491;-63
2024/01/02 09:38:44;;;;;;;5.60;3.30;;;;;;;-10.31;100.00;139783.14;107252;1259;25341;-64
2024/01/02 09:41:30;;;;;;;7.60;3.90;;;;;;;-10.28;100.00;139791.22;107175;1263;25375;-65
2024/01/02 09:44:48;;;;;;;7.00;3.60;;;;;;;-10.21;100.00;139805.25;107195;1263;25331;-62
2024/01/02 09:47:42;;;;;;;5.20;3.20;;;;;;;-10.15;100.00;139821.25;107178;1263;25344;-61
2024/01/02 09:50:51;;;;;;;6.00;3.10;;;;;;;-10.15;100.00;139821.72;107196;1272;25439;-59
2024/01/02 09:54:04;;;;;;;6.10;3.30;;;;;;;-10.19;100.00;139810.16;107107;1263;25550;-61
2024/01/02 09:57:16;;;;;;;6.40;3.30;;;;;;;-10.25;100.00;139796.59;107103;1270;25491;-64
2024/01/02 10:00:20;;;;;;;5.40;3.10;;;;;;;-10.23;100.00;139801.80;107132;1268;24353;-63
2024/01/02 10:03:12;;;;;;;6.90;3.70;;;;;;;-10.25;100.00;139796.59;107264;1264;25349;-63
2024/01/02 10:06:13;;;;;;;8.00;3.70;;;;;;;-10.24;100.00;139800.80;107281;1263;25443;-62
2024/01/02 10:09:43;;;;;;;6.60;3.40;;;;;;;-10.20;100.00;139809.66;107203;1263;25344;-62
2024/01/02 10:12:37;;;;;;;7.60;4.50;;;;;;;-10.23;100.00;139800.80;107061;1266;25407;-61
2024/01/02 10:15:37;;;;;;;6.40;3.90;;;;;;;-10.20;100.00;139807.95;107122;1271;25321;-65
2024/01/02 10:19:13;;;;;;;6.40;3.50;;;;;;;-10.17;100.00;139815.83;107174;1263;25350;-63
2024/01/02 10:22:40;;;;;;;8.60;4.50;;;;;;;-10.27;100.00;139794.63;107194;1270;25391;-62
2024/01/02 10:25:29;;;;;;;8.10;3.50;;;;;;;-10.27;100.00;139792.67;106540;1281;25453;-64
2024/01/02 10:28:19;;;;;;;7.60;3.70;;;;;;;-10.28;100.00;139790.25;106528;1272;25555;-63
2024/01/02 10:31:11;;;;;;;6.70;3.40;;;;;;;-10.30;100.00;139785.83;106499;1280;25472;-62
2024/01/02 10:34:16;;;;;;;10.70;4.90;;;;;;;-10.33;100.00;139778.95;106460;1273;25425;-62
2024/01/02 10:37:06;;;;;;;9.30;4.80;;;;;;;-10.34;100.00;139776.47;106488;1274;25390;-63
2024/01/02 10:40:06;;;;;;;6.50;4.00;;;;;;;-10.35;100.00;139774.03;106523;1272;25507;-64
2024/01/02 10:43:10;;;;;;;7.00;3.40;;;;;;;-10.37;100.00;139768.34;106392;1280;25542;-62
2024/01/02 10:46:04;;;;;;;7.80;4.50;;;;;;;-10.38;100.00;139765.91;106536;1263;25439;-64
2024/01/02 10:49:27;;;;;;;7.80;4.20;;;;;;;-10.37;100.00;139768.13;106593;1276;25383;-62
2024/01/02 10:52:19;;;;;;;8.60;4.10;;;;;;;-10.37;100.00;139768.59;106613;1274;25358;-62
2024/01/02 10:55:29;;;;;;;8.00;3.60;;;;;;;-10.37;100.00;139769.34;106599;1275;25334;-63
2024/01/02 10:58:20;;;;;;;8.20;3.60;;;;;;;-10.44;100.00;139750.63;107311;1273;25369;-65
2024/01/02 11:01:11;;;;;;;7.50;3.30;;;;;;;-10.43;100.00;139754.58;107091;1263;25359;-64
2024/01/02 11:04:01;;;;;;;;;;;;;;;-10.43;100.00;139754.81;107691;1263;25303;-63
2024/01/02 11:07:04;;;;;;;6.70;3.80;;;;;;;-10.55;100.00;139724.78;107149;1273;25453;-63
2024/01/02 11:09:49;;;;;;;;;;;;;;;-10.63;100.00;139704.36;107220;1270;25309;-62
2024/01/02 11:12:48;;;;;;;7.80;4.20;;;;;;;-10.67;100.00;139695.02;107413;1254;23329;-64
2024/01/02 11:15:36;;;;;;;6.90;3.20;;;;;;;-10.65;100.00;139700.17;107237;1269;25443;-66
2024/01/02 11:18:24;;;;;;;8.30;4.00;;;;;;;-10.61;100.00;139711.00;107153;1272;25412;-64
2024/01/02 11:21:33;;;;;;;9.60;4.30;;;;;;;-10.54;100.00;139727.73;107038;1263;22526;-64
2024/01/02 11:24:23;;;;;;;8.00;4.60;;;;;;;-10.45;100.00;139749.16;107505;1270;25284;-63
2024/01/02 11:27:11;;;;;;;8.10;4.30;;;;;;;-10.46;100.00;139745.22;107263;1272;25565;-60
2024/01/02 11:30:02;;;;;;;9.70;4.40;;;;;;;-10.54;100.00;139729.22;107458;1273;23174;-62
2024/01/02 11:33:20;;;;;;;7.60;4.30;;;;;;;-10.60;100.00;139713.20;107227;1273;25408;-64
2024/01/02 11:36:20;;;;;;;8.80;4.50;;;;;;;-10.62;100.00;139707.05;107286;1267;22529;-63
2024/01/02 11:39:44;;;;;;;6.20;3.50;;;;;;;-10.73;100.00;139682.70;107429;1263;22743;-62
2024/01/02 11:42:58;;;;;;;10.80;4.10;;;;;;;-10.84;100.00;139656.13;107655;1263;25411;-63
2024/01/02 11:45:54;;;;;;;6.40;3.40;;;;;;;-10.78;100.00;139670.41;107715;1263;23914;-63
2024/01/02 11:48:51;;;;;;;10.30;5.00;;;;;;;-10.77;100.00;139671.66;107632;1270;25536;-68
2024/01/02 11:51:45;;;;;;;10.60;5.00;;;;;;;-10.78;100.00;139671.14;107538;1265;25876;-63
2024/01/02 11:54:52;;;;;;;9.70;4.40;;;;;;;-10.90;100.00;139640.39;107591;1257;23814;-64
2024/01/02 11:57:51;;;;;;;9.30;4.80;;;;;;;-10.98;100.00;139621.67;107644;1270;25420;-63
2024/01/02 12:00:51;;;;;;;8.80;4.30;;;;;;;-10.99;100.00;139618.50;107405;1267;25385;-60
2024/01/02 12:03:55;;;;;;;7.30;4.30;;;;;;;-11.08;100.00;139597.59;106979;1264;25418;-64
2024/01/02 12:07:13;;;;;;;9.30;5.20;;;;;;;-11.08;100.00;139596.59;107233;1266;22507;-62
2024/01/02 12:10:00;;;;;;;7.20;4.10;;;;;;;-11.05;100.00;139604.22;107013;1266;23256;-63
2024/01/02 12:13:12;;;;;;;14.20;6.70;;;;;;;-11.06;100.00;139602.03;106903;1264;25359;-63
2024/01/02 12:16:07;;;;;;;10.60;5.90;;;;;;;-11.04;100.00;139606.69;107015;1257;25395;-63
2024/01/02 12:18:56;;;;;;;9.60;5.20;;;;;;;-11.14;100.00;139583.58;106934;1264;25439;-66
2024/01/02 12:21:44;;;;;;;12.70;6.50;;;;;;;-11.25;100.00;139557.02;106949;1272;25346;-63
2024/01/02 12:24:31;;;;;;;9.60;4.60;;;;;;;-11.31;100.00;139541.77;106906;1257;25392;-63
2024/01/02 12:27:23;;;;;;;10.20;5.50;;;;;;;-11.32;100.00;139539.30;106967;1261;25520;-62
2024/01/02 12:30:20;;;;;;;17.10;9.60;;;;;;;-11.31;100.00;139543.23;107100;1257;25359;-64
2024/01/02 12:33:25;;;;;;;8.10;4.40;;;;;;;-11.27;100.00;139552.59;107151;1260;24363;-65
2024/01/02 12:36:23;;;;;;;8.40;4.90;;;;;;;-11.31;100.00;139543.47;107044;1258;25411;-64
2024/01/02 12:39:10;;;;;;;9.40;4.90;;;;;;;-11.36;100.00;139530.20;107032;1266;25446;-65
2024/01/02 12:41:59;;;;;;;10.10;4.90;;;;;;;-11.35;100.00;139533.41;107116;1263;25512;-65
2024/01/02 12:44:49;;;;;;;6.00;3.50;;;;;;;-11.39;100.00;139522.83;107123;1267;25404;-64